Logs for Bob Combs, Near Albuquerque, NM, USA [DM65qc]
Paging Controls
Date UTC KHz ID Location S/P ITU Region GSQ LSB USB Sec. Fmt. Power KM Miles
2011-03-18 0825 275 AV St Andrews (Winnipeg) MB CAN na EO10lb 80 1835 1140
2011-03-18 0817 376 YAG Fort Frances ON CAN na EN38fq 40 1852 1151
2011-03-18 0815 258 ZSJ Sandy Lake ON CAN na EO33hb 500 2251 1399
2011-03-18 0810 264 ZPB Sachigo Lake ON CAN na EO33vv 50 2371 1473
2011-03-18 0809 351 YKQ Waskaganish QC CAN na FO01pl 500 2871 1784
2011-03-18 0808 350 NY Enderby BC CAN na DO00mp 500 1993 1238
2011-03-18 0807 347 PA Prince Albert SK CAN na DO73cf 25 2016 1253
2011-03-18 0806 346 YXL Sioux Lookout ON CAN na EO40bc 1000 2050 1274
2011-03-18 0805 344 GNC 'Gaines County' Seminole TX USA na DM82qq 25 456 284
2011-03-18 0804 344 XX Abbotsford BC CAN na CN89sa 2017 1253
2011-03-18 0803 344 FCH 'Chandler' Fressno CA USA na DM06br 400 1206 749
2011-03-18 0800 338 PBT 'Proberta' Red Bluff CA USA na CN80vc 500 1478 918
2011-03-18 0759 336 LF La Salle MB CAN na EN19ip 50 1786 1110
2011-03-18 0758 337 FF 'Hamre' Fergus Falls MN USA na EN16xf 25 1522 946
2011-03-18 0756 338 RYN 'Ryan' Tucson AZ USA na DM42kd 400 531 330
2011-03-18 0754 335 YLD Chapleau ON CAN na EN87hs 100 2380 1479
2011-03-18 0752 332 BVN 'Alaby' Albion NE USA na EN01xr 25 1048 651
2011-03-18 0746 332 QT Thunder Bay ON CAN na EN58gi 1000 2040 1267
2011-03-18 0740 332 CAO Clayton NM USA na DM86kk 349 217
2011-03-18 0736 326 MA 'Farly' Midland TX USA na DM81ux 400 531 330
2011-03-18 0734 329 TAD Trinidad CO USA na DM77th 150 318 197
2011-03-18 0731 317 VC La Ronge SK CAN na DO75ic 500 2226 1383
2011-03-18 0728 275 GUY Guymon OK USA na DM96fq 25 490 305
2011-03-18 0726 274 YPM Pikangikum ON CAN na EO31at 25 2113 1313
2011-03-18 0723 266 SAA Saratoga WY USA na DN61ok 50 704 438
2011-03-18 0719 256 TQK Scott City KS USA na DM98nl 634 394
2011-03-18 0711 251 AM 'Pande' Amarillo TX USA na DM95cd 400 439 273
2011-03-18 0710 248 PQF Mesquite TX USA na EM12rt 25 964 599
2011-03-18 0709 245 CRR Circle MT USA na DN77fk 1374 854
2011-03-18 0701 244 TH Thompson MB CAN na EO15bt 1000 2397 1489
2011-03-18 0655 245 FS 'Rokky' Sioux Falls SD USA na EN13ol 100 1256 781
2011-03-18 0647 242 EL 'Valtr' El Paso TX USA na DM61uu 400 363 225
2011-03-18 0647 242 XC Cranbrook BC CAN na DN29cq 400 1784 1109
2011-03-18 0642 206 SOW Show Low AZ USA na DM44xg 25 326 202
2011-02-27 0621 368 SX Skookum (Cranbrook) BC CAN na DN29cw 500 1809 1124
2011-02-27 0617 370 OUN Norman OK USA na EM15gf 833 518
2011-02-27 0611 371 ITU 'Truly' Great Falls MT USA na DN47hi 100 1418 881
2011-02-27 0603 371 TVY Tooele UT USA na DN30to 25 792 492
2011-02-27 0559 373 TF 'Aruba' Pueblo CO USA na DM78tg 405 252
2011-02-27 0558 375 DW 'Owaso' Tulsa OK USA na EM26bh 20 979 608
2011-02-27 0557 377 BUB Burwell NE USA na EN01ks 987 613
2011-02-27 0555 380 BBD Brady TX USA na EM01ie 25 809 503
2011-02-27 0553 382 YPL Pickle Lake ON CAN na EO41vk 500 2239 1391
2011-02-27 0551 383 CNP Chappell NE USA na DN81sb 25 756 470
2011-02-27 0548 385 WL Williams Lake BC CAN na CO92ad 500 2251 1398
2011-02-27 0546 386 SYF St. Francis KS USA na DM99cr 25 668 415
2011-02-27 0241 380 OEL Oakley KS USA na DM99oc 25 682 424
2011-02-26 0543 389 CSB 'Harry Strunk' Cambridge NE USA na DN90wh 25 813 505
2011-02-26 0543 392 FMZ 'Beklof' Fairmont NE USA na EN10fo 25 1004 624
2011-02-26 0540 392 PNA 'Wenz' Pinedale WY USA na DN52ct 25 899 559
2011-02-26 0537 391 DDP San Juan / Dorado / Luiz Munoz Marin Intl PR PTR ca FK68tl 2000 4363 2711
2011-02-26 0529 395 JM 'Sabon' Jamestown ND USA na EN06ru 1470 913
2011-02-26 0529 396 YPH Inukjuak QC CAN na FO08wk 500 3331 2070
2011-02-26 0518 396 IEW Winters TX USA na EM01aw 25 711 442
2011-02-26 0515 397 ZST 'Alpine' Saint John NB CAN na FN75af 50 3591 2231
2011-02-26 0514 396 HDE Holdrege NE USA na EN00hk 25 870 540
2011-02-26 0511 397 ZSS Yellowhead (Saskatoon) SK CAN na DO62pf 25 1904 1183
2011-02-26 0505 399 4M Red Sucker Lake MB CAN na EO34fe 50 2352 1461
2011-02-26 0502 400 QQ Comox BC CAN na CN79ms 2207 1371
2011-02-26 0500 401 LA 'Earle' Lafayette IN USA na EN60lk 25 1816 1128
2011-02-26 0458 401 YPO Peawanuck ON CAN na EO74gx 125 2742 1704
2011-02-21 0328 434 SLB Storm Lake IA USA na EN22jo 25 1291 802
2011-02-21 0320 414 ZRG Brophy (Regina) SK CAN na DO70ok 20 1711 1063
2011-02-21 0319 413 YHD Dryden ON CAN na EN39nu 250 1983 1232
2011-02-21 0318 414 ATS Artesia NM USA na DM72su 25 320 199
2011-02-21 0314 411 SDA Shenandoah IA USA na EN20hs 25 1169 726
2011-02-21 0308 412 BWR 'Brewster Co' Alpine TX USA na DM80ek 25 590 366
2011-02-21 0258 407 CHD Chandler AZ USA na DM43cg 25 517 321
2011-02-21 0256 404 FNB 'Brenner' Falls City NE USA na EN20eb 25 1114 692
2011-02-21 0245 404 MOG Montague CA USA na CN81sr 25 1560 969
2010-02-18 0625 198 DIW Dixon NC USA na FM14gn 2000 2653 1648
2010-02-18 0623 278 CEP 'Capitan' Ruidoso NM USA na DM73hl 25 214 133
2010-02-18 0621 275 GUY Guymon OK USA na DM96fq 25 490 305
2010-02-18 0616 272 YQA Muskoka ON CAN na FN05ia 400 2557 1589
2010-02-18 0614 272 YLB Lac La Biche AB CAN na DO34xs 708 2226 1383
2010-02-18 0613 272 MLK Malta MT USA na DN68bi 1477 917
2010-02-18 0603 266 XD Edmonton AB CAN na DO33fp 2131 1324
2010-02-18 0601 266 SAA Saratoga WY USA na DN61ok 50 704 438
2010-02-18 0553 251 AM 'Pande' Amarillo TX USA na DM95cd 400 439 273
2010-02-17 0649 353 DWL 'Willow' Gothenburg NE USA na DN90xu 25 861 535
2010-02-17 0647 353 PG Portage MB CAN na EN09vu 25 1776 1104
2010-02-17 0644 350 NY Enderby BC CAN na DO00mp 500 1993 1238
2010-02-17 0644 351 AE 'Dudle' Albuquerque NM USA na DM65pf 16 10
2010-02-17 0643 350 RG 'Gally' Oklahoma City OK USA na EM15eh 400 818 508
2010-02-17 0642 349 GW 'Teock' Greenwood MS USA na EM43wo 25 1522 946
2010-02-17 0640 346 YXL Sioux Lookout ON CAN na EO40bc 1000 2050 1274
2010-02-17 0636 344 GNC 'Gaines County' Seminole TX USA na DM82qq 25 456 284
2010-02-17 0635 344 YC Calgary AB CAN na DO31bb 1867 1160
2010-02-17 0632 344 FCH 'Chandler' Fressno CA USA na DM06br 400 1206 749
2010-02-17 0630 341 YYU Kapuskasing ON CAN na EN89rl 500 2526 1569
2010-02-17 0627 338 RYN 'Ryan' Tucson AZ USA na DM42kd 400 531 330
2010-02-17 0626 335 CNK Concordia KS USA na EM19en 937 582
2010-02-17 0622 335 YLD Chapleau ON CAN na EN87hs 100 2380 1479
2010-02-17 0622 336 LF La Salle MB CAN na EN19ip 50 1786 1110
2010-02-17 0618 337 FF 'Hamre' Fergus Falls MN USA na EN16xf 25 1522 946
2010-02-17 0615 332 QT Thunder Bay ON CAN na EN58gi 1000 2040 1267
2010-02-17 0605 326 YQK Kenora ON CAN na EN29st 200 1910 1187
2010-02-17 0605 329 PMV Plattsmouth NE USA na EN20bw 25 1142 709
2010-02-10 0610 269 UDE Delta MB CAN na EO00ud 50 1803 1120
2004-04-10 0400 389 CSB 'Harry Strunk' Cambridge NE USA na DN90wh 25 813 505
2004-04-10 0400 391 DDP San Juan / Dorado / Luiz Munoz Marin Intl PR PTR ca FK68tl 2000 4363 2711
2004-02-29 0500 480 RW Seven Lakes CO USA na DM78 404 251
2004-02-29 0445 428 POH Pocahontas IA USA na EN22qr 25 1338 831
2004-02-29 0430 410 MSB 'Monarch' Iola KS USA na EM27hs 25 1048 651
2004-02-09 280 GZV 'Brazos River' Graford TX USA na EM02tw 25 797 495
2004-02-09 272 YQA Muskoka ON CAN na FN05ia 400 2557 1589
2004-02-09 284 QD The Pas MB CAN na DO93lx 500 2143 1331
2004-02-09 340 YY Mont Joli QC CAN na FN58un 500 3463 2152
2004-02-09 346 YXL Sioux Lookout ON CAN na EO40bc 1000 2050 1274
2004-02-09 362 SB Sudbury ON CAN na EN96mp 400 2493 1549
2004-02-01 281 FFZ 'Falcon Fld' Mesa AZ USA na DM43dl 25 501 311
2004-02-01 283 IML Imperial NE USA na DN90em 25 745 463
2004-02-01 332 CZX Crosbyton TX USA na DM93jo 524 326
2004-02-01 335 CDH Camden AR USA na EM33oo 25 1279 795
2004-02-01 338 HR 'Sebas' Harlingen TX USA na EL16eh 25 1301 808
2004-02-01 341 OIN Oberlin KS USA na DM99rt 25 749 466
2004-02-01 344 YC Calgary AB CAN na DO31bb 1867 1160
2004-02-01 346 THJ 'Tallahala' Laurel MS USA na EM51jq 25 1658 1030
2004-02-01 347 LFA 'Merrill' Klamath Lake CA USA na CN91ex 45 1509 937
2004-02-01 353 BKS 'Brooks Co' Falfurrias TX USA na EL07we 25 1194 742
2004-02-01 353 DWL 'Willow' Gothenburg NE USA na DN90xu 25 861 535
2004-02-01 353 PG Portage MB CAN na EN09vu 25 1776 1104
2004-02-01 330 CZM Cozumel (Quintana Roo) MEX ca EL60mm 2514 1562
2004-02-01 335 YLD Chapleau ON CAN na EN87hs 100 2380 1479
2004-02-01 344 DCI Unknown (Greely Colorado?) XUN xx
2004-02-01 350 NY Enderby BC CAN na DO00mp 500 1993 1238
2004-01-31 0530 281 EWK Newton KS USA na EM18ib 25 895 556
2004-01-31 0500 280 IPA Rapa Nui (Easter Island) (Isla de Pascua) PAQ oc DG52gu 3000 6927 4304
2004-01-25 385 WL Williams Lake BC CAN na CO92ad 500 2251 1398
2004-01-25 430 AYB Auburn NE USA na EN20ck 1120 696
2004-01-18 382 GRN Guerrero Negro (Baja California) MEX ca DL28xa 1055 655
2004-01-18 414 ATS Artesia NM USA na DM72su 25 320 199
2004-01-18 380 BBD Brady TX USA na EM01ie 25 809 503
2004-01-18 450 PPA Puerto Plata DOM ca FK49rs 3918 2434
2004-01-18 512 HMY 'Muldrow' Lexington OK USA na EM15ja 25 857 532
2004-01-10 233 OKS Oshkosh NE USA na DN81tj 25 791 492
2004-01-10 233 VHN Van Horn TX USA na DM71ob 25 481 299
2004-01-10 266 SAA Saratoga WY USA na DN61ok 50 704 438
2004-01-10 269 BEX Bloomfield IA USA na EN30sr 25 1389 863
2004-01-10 272 OJA Weatherford OK USA na EM05pm 720 447
2004-01-10 275 GEY Greybull WY USA na DN54xm 50 1054 655
2003-12-22 400 QQ Comox BC CAN na CN79ms 2207 1371
2003-12-22 403 AZC Colorado City AZ USA na DM36lx 40 613 381
2003-12-22 412 BWR 'Brewster Co' Alpine TX USA na DM80ek 25 590 366
2003-12-22 400 RCF Oil Platform XON iw EL47vm 1769 1099
2003-12-22 417 HHG Huntington IN USA na EN70gu 25 1956 1215
2003-12-14 204 RMD 'Mc Dermitt State' Mc Dermitt OR USA na DN12da 25 1231 765
2003-12-14 206 LR 'Hawke' Las Cruces NM USA na DM62nf 25 320 199
2003-12-14 217 EC 'Meggi' Cedar City UT USA na DM37ls 49 646 401
2003-12-14 223 FS 'Wizer' Fort Smith AR USA na EM25vi 1127 700
2003-12-14 242 XC Cranbrook BC CAN na DN29cq 400 1784 1109
2003-12-14 278 XSD Tonopah Range NV USA na DM17ou 50 958 595
2003-12-14 280 GVV Grangeville ID USA na DN15vw 100 1449 900
2003-12-14 284 DPG 'Dugway' Dugway Proving Ground UT USA na DN30me 793 493
2003-12-14 294 BMC Brigham City UT USA na 855 531
2003-12-14 296 LQR Larned KS USA na EM08ke 25 751 467
2003-12-14 332 XH Medicine Hat AB CAN na DO40oa 50 1692 1051
2003-12-14 335 BDX Broadus MT USA na DN75hk 1154 717
2003-12-14 335 CVP 'Capitol' Helena MT USA na DN46ao 1354 841
2003-12-14 344 POY Powell WY USA na DN54ou 25 1099 683
2003-12-14 347 SBX Shelby MT USA na DN48bm 50 1553 965
2003-12-14 280 MPG Progreso (Yucatan) MEX ca EL51dg 1000 2255 1401
2003-12-14 344 BKU 'Timber' Baker MT USA na DN76ui 80 1266 787
2003-12-14 353 LWT Lewistown MT USA na DN57tb 200 1337 831
2003-12-13 353 CY 'Horse' Cheyenne WY USA na DN71pd 692 430
2003-12-13 353 LLD Lanai HI HWA oc BL10ms 2000 5136 3191
2003-12-13 356 PTT Pratt KS USA na EM07pr 25 766 476
2003-12-13 397 CIN Carroll IA USA na EN22ob 25 1285 798
2003-12-13 400 AHQ Wahoo NE USA na EN11qf 1107 688
2003-12-13 400 HHF 'Hemphill County' Canadian TX USA na DM95tv 25 572 356
2003-12-13 400 RCF Oil Platform XON iw EL47vm 1769 1099
2003-12-13 403 AXA Algona IA USA na EN23ub 25 1381 858
2003-12-13 405 LR 'Pekks' Laredo TX USA na EL07gp 1072 666
2003-12-13 406 OK 'Tuloo' Tulakes OK USA na EM15el 817 508
2003-12-13 407 CO 'Petey' Colorado Springs CO USA na DM78pq 25 433 269
2003-12-13 407 RVB 'Riverbend' Mobridge SD USA na DN95tn 1277 793
2003-12-13 408 JDM 'Wheatfield' Colby KS USA na DM99lm 25 696 432
2003-12-13 410 DAO 'Dragoo' Fort Huachuca (Sierra Vista) AZ USA na DM41to 25 522 324
2003-12-13 410 GDV Glendive MT USA na DN77od 100 1347 837
2003-12-13 411 SDA Shenandoah IA USA na EN20hs 25 1169 726
2003-12-13 414 PYD 'Area 19' Groom Lake NV USA na DM27ae 100 869 540
2003-12-13 414.5 RPB 'Republican' Belleville KS USA na EM19et 950 591
2003-12-13 417 IY 'Chukk' Charles City IA USA na EN33pd 25 1493 928
2003-12-13 418 CW 'Mossy' Lake Charles LA USA na EM30jh 25 1362 846
2003-12-13 420 FQ 'Montz' Fairmont MN USA na EN23tp 25 1415 879
2003-12-13 420 PK Olathe KS USA na EM28ps 25 1134 704
2003-12-13 421 EF 'Fluet' Mc Kinney TX USA na EM13qg 942 585
2003-12-13 420 CEK Crete NE USA na EN10mo 25 1045 649
2003-12-13 423 CKP 'Pilot Rock' Cherokee IA USA na EN22fr 25 1278 794
2003-12-13 423 DXE Dexter MO USA na EM56as 1510 938
2003-12-13 428 SYW 'Cash' Greenville TX USA na EM12xx 25 1003 623
2003-12-13 430 AYB Auburn NE USA na EN20ck 1120 696
2003-12-13 434 SLB Storm Lake IA USA na EN22jo 25 1291 802
2003-12-13 515 PN 'Ponca' Ponca City OK USA na EM16kt 25 875 544
2003-12-12 344 GNC 'Gaines County' Seminole TX USA na DM82qq 25 456 284
2003-12-12 351 AE 'Dudle' Albuquerque NM USA na DM65pf 16 10
2003-12-12 356 ODX Ord NE USA na EN01mo 25 984 611
2003-12-12 359 BO 'Ustik' Boise ID USA na DN13uo 400 1257 781
2003-12-12 362 CYW Clay Center KS USA na EM19kj 25 966 600
2003-12-12 362 RPX Round Up MT USA na DN56rl 25 1275 792
2003-12-12 365 FT 'Mufin' Fort Worth TX USA na EM12hv 25 887 551
2003-12-12 365 HQG Hugoton KS USA na DM97hd 25 523 325
2003-12-12 365 PTS Pittsburg KS USA na EM27pk 25 1098 682
2003-12-12 368 GYM Guaymas (Sonora) MEX ca DL47mw 1000 896 557
2003-12-12 368 SIR Sinclair WY USA na DN61kt 100 747 464
2003-12-12 368 SX Skookum (Cranbrook) BC CAN na DN29cw 500 1809 1124
2003-12-12 371 ITU 'Truly' Great Falls MT USA na DN47hi 100 1418 881
2003-12-12 373 TF 'Aruba' Pueblo CO USA na DM78tg 405 252
2003-12-12 388 OFZ 'Trail' Fort Sill OK USA na EM04ts 753 468
2003-12-12 394 ENZ Nogales AZ USA na DM41nk 100 568 353
2003-12-12 396 CQB 'Tilghman' Chandler OK USA na EM15or 893 555
2003-12-12 397 BWK Bunkie LA USA na EM30vu 1423 884
2003-12-12 400 FN 'Colln' Fort Collins / Loveland CO USA na DN70mi 25 602 374
2003-12-12 400 VQ 'Besaq' Alamosa CO USA na DM77ai 257 160
2003-12-12 350 RG 'Gally' Oklahoma City OK USA na EM15eh 400 818 508
2003-12-12 353 LWT Lewistown MT USA na DN57tb 200 1337 831
2003-12-12 375 DW 'Owaso' Tulsa OK USA na EM26bh 20 979 608
2003-12-11 275 PLS Polson MT USA na DN27vq 1533 953
2003-12-11 280 GYZ 'Camp Guernsey' Guernsey WY USA na DN72pf 50 809 503
2003-12-11 284 MXR 'Maxwell' Raton NM USA na DM76rq 257 160
2003-12-11 290 AOP 'Antelope' Rock Springs WY USA na DN51lo 100 753 468
2003-12-11 293 FBY Fairbury NE USA na EN10ke 50 1008 627
2003-12-11 293 TOR Torrington WY USA na DN72wb 25 803 499
2003-12-11 299 TV Turner Valley AB CAN na DO20ts 200 1850 1149
2003-12-11 302 EAG Eagle Grove IA USA na EN32br 25 1388 863
2003-12-11 302 PU 'Mertz' Pueblo CO USA na DM78qg 395 245
2003-12-11 305 RO 'Topan' Roswell NM USA na DM73si 400 278 173
2003-12-11 311 MVI Monte Vista CO USA na DM67xm 274 170
2003-12-11 314 GGU Prague OK USA na EM15pm 25 900 559
2003-12-11 323 HJH Hebron NE USA na EN10ed 25 970 603
2003-12-11 326 MA 'Farly' Midland TX USA na DM81ux 400 531 330
2003-12-11 326 MCY 'Desert Rock' Mercury NV USA na DM16xo 50 864 537
2003-12-11 329 FIA 'Florida' Socorro NM USA na DM64nc 25 113 71
2003-12-11 329 OWU 'West Woodward' Woodward OK USA na EM06fk 656 407
2003-12-11 329 TAD Trinidad CO USA na DM77th 150 318 197
2003-12-11 332 CAO Clayton NM USA na DM86kk 349 217
2003-12-11 333 STI 'Sturgeon' Mountain Home ID USA na DN23ec 1179 733
2003-12-11 338 MRK 'Molly Ridge' Rayville LA USA na EM42cj 1402 871
2003-12-11 338 PBT 'Proberta' Red Bluff CA USA na CN80vc 500 1478 918
2003-12-11 338 RYN 'Ryan' Tucson AZ USA na DM42kd 400 531 330
2003-12-11 281 UVA Uvalde TX USA na EL09de 25 925 575
2003-12-11 326 YQK Kenora ON CAN na EN29st 200 1910 1187
2003-12-11 332 QT Thunder Bay ON CAN na EN58gi 1000 2040 1267
2003-12-11 341 SG 'Doman' Santa Fe NM USA na DM65wn 68 42
2003-12-09 335 RQO El Reno OK USA na EM05xl 25 780 484
2003-12-09 341 SG 'Doman' Santa Fe NM USA na DM65wn 68 42
2003-12-09 347 TKB 'Kleberg Co' Kingsville TX USA na EL07wo 25 1159 720
2003-12-09 330 GLE Gainesville TX USA na EM13jr 877 545
2003-12-09 350 RG 'Gally' Oklahoma City OK USA na EM15eh 400 818 508
2003-11-29 356 PK Unknown XUN xx
2003-11-29 358 CKC 'Cook County' Grand Marais MN USA na EN47tu 25 1952 1213
2003-11-29 365 ADT Atwood KS USA na DM99lu 722 448
2003-11-29 386 LYO Lyons KS USA na EM08vi 25 832 517
2003-11-29 395 ULS Ulysses KS USA na DM97ho 546 339
2003-11-29 397 SB 'Petis' San Bernardino CA USA na DM14hb 50 990 615
2003-11-29 400 AI 'Addmo' Ardmore OK USA na EM14mf 25 889 552
2003-11-29 407 CHD Chandler AZ USA na DM43cg 25 517 321
2003-11-29 411 HDL Holdenville OK USA na EM15tc 932 579
2003-11-29 413 OEG 'Golden Eagle' Yuma Proving Ground AZ USA na DM22su 49 764 475
2003-11-29 419 GB 'Babsy' Great Bend KS USA na EM08ng 25 775 482
2003-11-29 350 RG 'Gally' Oklahoma City OK USA na EM15eh 400 818 508
2003-11-29 353 CY 'Horse' Cheyenne WY USA na DN71pd 692 430
2003-11-29 362 CYW Clay Center KS USA na EM19kj 25 966 600
2003-11-29 365 HQG Hugoton KS USA na DM97hd 25 523 325
2003-11-29 365 PTS Pittsburg KS USA na EM27pk 25 1098 682
2003-11-29 368 SIR Sinclair WY USA na DN61kt 100 747 464
2003-11-29 368 GYM Guaymas (Sonora) MEX ca DL47mw 1000 896 557
2003-11-29 373 TF 'Aruba' Pueblo CO USA na DM78tg 405 252
2003-11-29 394 ENZ Nogales AZ USA na DM41nk 100 568 353
2003-11-29 400 FN 'Colln' Fort Collins / Loveland CO USA na DN70mi 25 602 374
2003-11-29 400 HHF 'Hemphill County' Canadian TX USA na DM95tv 25 572 356
2003-11-29 404 MOG Montague CA USA na CN81sr 25 1560 969
2003-11-29 407 CO 'Petey' Colorado Springs CO USA na DM78pq 25 433 269
2003-11-29 408 JDM 'Wheatfield' Colby KS USA na DM99lm 25 696 432
2003-11-29 410 DAO 'Dragoo' Fort Huachuca (Sierra Vista) AZ USA na DM41to 25 522 324
2003-11-29 414 SKX 'Ski' Taos NM USA na DM76dk 25 170 105
2003-11-29 414.5 RPB 'Republican' Belleville KS USA na EM19et 950 591
2003-11-29 418 CW 'Mossy' Lake Charles LA USA na EM30jh 25 1362 846
2003-11-29 421 EF 'Fluet' Mc Kinney TX USA na EM13qg 942 585
2003-11-29 423 DXE Dexter MO USA na EM56as 1510 938
2003-11-29 428 SYW 'Cash' Greenville TX USA na EM12xx 25 1003 623
2003-11-29 434 SLB Storm Lake IA USA na EN22jo 25 1291 802
2003-11-28 247 ILT Isleta NM USA na DM64qx 400 14 9
2003-11-28 251 TZO Bristow OK USA na EM15ss 25 923 574
2003-11-28 266 LLN Levelland TX USA na DM83tn 426 265
2003-11-28 291 #845 Clines Corners (Albuquerque) NM USA na DM64sw 24 15
2003-11-28 299 #866 Sallisaw OK USA na EM25oi 1074 668
2003-11-28 300 #871 Appleton WA USA na CN95ps 1676 1042
2003-11-28 301 #828 Bonny (Angleton) TX USA na EL29gh 1231 765
2003-11-28 303 #873 Myton UT USA na DN40xc 632 393
2003-11-28 307 #872 Sugar City (Pueblo) CO USA na DM78tg 405 252
2003-11-28 311 BFE Brownfield TX USA na DM83ve 459 285
2003-11-28 313 #874 Garland (Billings) MT USA na DN65ax 1214 754
2003-11-28 314 #764 Lincoln CA USA na CM98hu 1373 853
2003-11-28 316 #848 Killarney Lake (Spokane) WA USA na DN17gm 1647 1023
2003-11-28 318 #823 Summerfield TX USA na DM84rt 373 232
2003-11-28 319 #876 Castle Butte (Flagstaff) AZ USA na DM45cf 470 292
2003-11-28 320 #865 Miller's Ferry AL USA na EM62hc 1810 1125
2003-11-28 321 #882 Lompoc CA USA na CM94rt 1267 788
2003-11-28 325 #851 Dickinson (Medora) ND USA na DN86pv 1351 839
2003-11-28 335 IHS 'Ironhorse' Fort Carson CO USA na DM78oq 25 430 267
2003-11-28 341 ALM Alamogordo NM USA na DM72au 25 258 160
2003-11-28 344 FCH 'Chandler' Fressno CA USA na DM06br 400 1206 749
2003-11-28 404 MOG Montague CA USA na CN81sr 25 1560 969
2003-11-28 407 PRZ Portales NM USA na DM84hd 25 316 196
2003-11-28 414 SKX 'Ski' Taos NM USA na DM76dk 25 170 105
2003-11-28 212 BCY 'Thorp' Boise City OK USA na DM86rs 412 256
2003-11-28 242 EL 'Valtr' El Paso TX USA na DM61uu 400 363 225
2003-11-28 251 AM 'Pande' Amarillo TX USA na DM95cd 400 439 273
2003-11-28 278 CEP 'Capitan' Ruidoso NM USA na DM73hl 25 214 133
2003-11-28 284 MXR 'Maxwell' Raton NM USA na DM76rq 257 160
2003-11-28 305 RO 'Topan' Roswell NM USA na DM73si 400 278 173
2003-11-28 311 MVI Monte Vista CO USA na DM67xm 274 170
2003-11-28 314 GGU Prague OK USA na EM15pm 25 900 559
2003-11-28 326 MA 'Farly' Midland TX USA na DM81ux 400 531 330
2003-11-28 329 TAD Trinidad CO USA na DM77th 150 318 197
2003-11-28 329 FIA 'Florida' Socorro NM USA na DM64nc 25 113 71
2003-11-28 332 CAO Clayton NM USA na DM86kk 349 217
2003-11-28 338 RYN 'Ryan' Tucson AZ USA na DM42kd 400 531 330
2003-11-28 344 GNC 'Gaines County' Seminole TX USA na DM82qq 25 456 284
2003-11-28 351 AE 'Dudle' Albuquerque NM USA na DM65pf 16 10
2003-11-28 356 PTT Pratt KS USA na EM07pr 25 766 476
2003-11-28 414 PYD 'Area 19' Groom Lake NV USA na DM27ae 100 869 540
2003-11-10 201 GV 'Major' Greenville TX USA na EM13xd 25 998 620
2003-11-10 201 MNE Minden LA USA na EM32ip 1260 783
2003-11-10 206 SOW Show Low AZ USA na DM44xg 25 326 202
2003-11-10 209 ITR 'Kit Carson' Burlington CO USA na DM89uf 25 598 371
2003-11-10 212 BCY 'Thorp' Boise City OK USA na DM86rs 412 256
2003-11-10 214 CHX Choix (Sinaloa) MEX ca DL56ur 944 587
2003-11-10 227 MPR Mc Pherson KS USA na EM18di 25 872 542
2003-11-10 230 BI 'Jadan' Bismarck ND USA na DN96qq 1382 859
2003-11-10 230 PD 'Foris' Pendleton OR USA na DN05pq 400 1556 967
2003-11-10 233 GAK 'Sioux Gateway' Sioux City IA USA na EN12tj 25 1201 746
2003-11-10 236 FOR Forsyth MT USA na DN66rg 25 1241 771
2003-11-10 239 LNC Lancaster TX USA na EM12pn 25 958 595
2003-11-10 239 PWY Hebbronville TX USA na EL07qk 1141 709
2003-11-10 242 CUH Cushing OK USA na EM15ov 25 894 555
2003-11-10 242 EL 'Valtr' El Paso TX USA na DM61uu 400 363 225
2003-11-10 245 CRR Circle MT USA na DN77fk 1374 854
2003-11-10 248 PQF Mesquite TX USA na EM12rt 25 964 599
2003-11-10 251 AM 'Pande' Amarillo TX USA na DM95cd 400 439 273
2003-11-10 251 MNZ Hamilton TX USA na EM01wo 25 880 547
2003-11-10 256 TQK Scott City KS USA na DM98nl 634 394
2003-11-10 259 PBY 'Peabody' Kayenta AZ USA na DM46tl 25 371 231
2003-11-10 260 AP 'Casse' Denver CO USA na DM79nk 100 506 314
2003-11-10 278 CEP 'Capitan' Ruidoso NM USA na DM73hl 25 214 133
2003-11-10 206 GLS Galveston TX USA na EL29oi 2000 1282 797
2003-11-10 216 CLB Wilmington / Carolina Beach NC USA na FM14ac 2617 1626
2003-11-10 248 WG Winnipeg MB CAN na EN19hv 250 1807 1123
2003-11-10 275 GUY Guymon OK USA na DM96fq 25 490 305